Terminal Aerodrome Forecast
Issued by NWS

Home | Current Version | Previous Version | Text Only | Print | Product List | Glossary On
Versions: 1 2 3 4 5 6 7 8 9 10 11 12 13 14 15 16 17 18 19
208
FTUS41 KBTV 230902 AAB
TAFMPV
TAF AMD
KMPV 230902Z 2309/2406 00000KT P6SM OVC200
      TEMPO 2309/2312 1/4SM FG VV001
     FM231300 00000KT P6SM BKN250
     FM232100 33004KT P6SM SCT100=

USA.gov is the U.S. government's official web portal to all federal, state and local government web resources and services.